sensor_id;sensor_type;location;lat;lon;timestamp;P1;durP1;ratioP1;P2;durP2;ratioP2
12367;SDS011;6248;49.812;6.620;2023-09-07T00:00:05;3.42;;;2.97;;
12367;SDS011;6248;49.812;6.620;2023-09-07T00:02:35;3.22;;;2.92;;
12367;SDS011;6248;49.812;6.620;2023-09-07T00:05:05;3.20;;;3.00;;
12367;SDS011;6248;49.812;6.620;2023-09-07T00:07:33;3.25;;;3.05;;
12367;SDS011;6248;49.812;6.620;2023-09-07T00:10:00;4.10;;;3.03;;
12367;SDS011;6248;49.812;6.620;2023-09-07T00:12:28;3.50;;;3.20;;
12367;SDS011;6248;49.812;6.620;2023-09-07T00:14:55;3.55;;;2.95;;
12367;SDS011;6248;49.812;6.620;2023-09-07T00:17:23;3.30;;;3.00;;
12367;SDS011;6248;49.812;6.620;2023-09-07T00:19:50;3.50;;;2.97;;
12367;SDS011;6248;49.812;6.620;2023-09-07T00:22:21;3.25;;;3.05;;
12367;SDS011;6248;49.812;6.620;2023-09-07T00:24:48;3.97;;;3.00;;
12367;SDS011;6248;49.812;6.620;2023-09-07T00:27:16;3.38;;;3.15;;
12367;SDS011;6248;49.812;6.620;2023-09-07T00:29:43;3.47;;;3.17;;
12367;SDS011;6248;49.812;6.620;2023-09-07T00:32:10;3.75;;;3.10;;
12367;SDS011;6248;49.812;6.620;2023-09-07T00:34:38;3.17;;;2.88;;
12367;SDS011;6248;49.812;6.620;2023-09-07T00:37:05;3.10;;;2.90;;
12367;SDS011;6248;49.812;6.620;2023-09-07T00:39:34;4.82;;;3.30;;
12367;SDS011;6248;49.812;6.620;2023-09-07T00:42:02;3.67;;;2.88;;
12367;SDS011;6248;49.812;6.620;2023-09-07T00:44:29;3.13;;;2.92;;
12367;SDS011;6248;49.812;6.620;2023-09-07T00:46:56;3.83;;;2.80;;
12367;SDS011;6248;49.812;6.620;2023-09-07T00:49:24;3.20;;;3.00;;
12367;SDS011;6248;49.812;6.620;2023-09-07T00:51:51;3.28;;;2.92;;
12367;SDS011;6248;49.812;6.620;2023-09-07T00:54:19;3.40;;;3.10;;
12367;SDS011;6248;49.812;6.620;2023-09-07T00:56:48;4.35;;;3.30;;
12367;SDS011;6248;49.812;6.620;2023-09-07T00:59:15;3.50;;;3.20;;
12367;SDS011;6248;49.812;6.620;2023-09-07T01:01:42;3.00;;;2.70;;
12367;SDS011;6248;49.812;6.620;2023-09-07T01:04:10;3.78;;;2.90;;
12367;SDS011;6248;49.812;6.620;2023-09-07T01:06:38;3.50;;;2.78;;
12367;SDS011;6248;49.812;6.620;2023-09-07T01:09:10;2.95;;;2.75;;
12367;SDS011;6248;49.812;6.620;2023-09-07T01:11:39;3.28;;;2.97;;
12367;SDS011;6248;49.812;6.620;2023-09-07T01:14:08;3.50;;;3.00;;
12367;SDS011;6248;49.812;6.620;2023-09-07T01:16:35;4.70;;;3.17;;
12367;SDS011;6248;49.812;6.620;2023-09-07T01:19:03;4.75;;;3.08;;
12367;SDS011;6248;49.812;6.620;2023-09-07T01:21:34;3.13;;;2.92;;
12367;SDS011;6248;49.812;6.620;2023-09-07T01:24:02;2.97;;;2.78;;
12367;SDS011;6248;49.812;6.620;2023-09-07T01:26:29;3.38;;;3.08;;
12367;SDS011;6248;49.812;6.620;2023-09-07T01:28:57;2.85;;;2.65;;
12367;SDS011;6248;49.812;6.620;2023-09-07T01:31:24;4.65;;;3.42;;
12367;SDS011;6248;49.812;6.620;2023-09-07T01:33:51;3.40;;;3.20;;
12367;SDS011;6248;49.812;6.620;2023-09-07T01:36:18;3.10;;;2.90;;
12367;SDS011;6248;49.812;6.620;2023-09-07T01:38:47;3.80;;;3.03;;
12367;SDS011;6248;49.812;6.620;2023-09-07T01:41:14;3.28;;;3.00;;
12367;SDS011;6248;49.812;6.620;2023-09-07T01:43:41;3.30;;;3.10;;
12367;SDS011;6248;49.812;6.620;2023-09-07T01:46:09;3.42;;;3.13;;
12367;SDS011;6248;49.812;6.620;2023-09-07T01:48:36;3.15;;;2.95;;
12367;SDS011;6248;49.812;6.620;2023-09-07T01:51:03;3.70;;;3.40;;
12367;SDS011;6248;49.812;6.620;2023-09-07T01:53:30;3.92;;;2.90;;
12367;SDS011;6248;49.812;6.620;2023-09-07T01:55:59;4.22;;;3.35;;
12367;SDS011;6248;49.812;6.620;2023-09-07T01:58:26;3.92;;;3.00;;
12367;SDS011;6248;49.812;6.620;2023-09-07T02:00:56;3.28;;;3.05;;
12367;SDS011;6248;49.812;6.620;2023-09-07T02:03:24;3.38;;;3.08;;
12367;SDS011;6248;49.812;6.620;2023-09-07T02:05:51;3.70;;;3.00;;
12367;SDS011;6248;49.812;6.620;2023-09-07T02:08:19;3.40;;;3.10;;
12367;SDS011;6248;49.812;6.620;2023-09-07T02:10:46;3.20;;;3.00;;
12367;SDS011;6248;49.812;6.620;2023-09-07T02:13:15;4.65;;;3.20;;
12367;SDS011;6248;49.812;6.620;2023-09-07T02:15:42;3.10;;;2.90;;
12367;SDS011;6248;49.812;6.620;2023-09-07T02:18:10;3.38;;;3.08;;
12367;SDS011;6248;49.812;6.620;2023-09-07T02:20:37;3.88;;;3.20;;
12367;SDS011;6248;49.812;6.620;2023-09-07T02:23:04;3.50;;;3.20;;
12367;SDS011;6248;49.812;6.620;2023-09-07T02:25:31;3.55;;;3.30;;
12367;SDS011;6248;49.812;6.620;2023-09-07T02:28:01;3.53;;;3.22;;
12367;SDS011;6248;49.812;6.620;2023-09-07T02:30:30;5.63;;;2.95;;
12367;SDS011;6248;49.812;6.620;2023-09-07T02:32:58;3.50;;;3.20;;
12367;SDS011;6248;49.812;6.620;2023-09-07T02:35:25;3.30;;;3.10;;
12367;SDS011;6248;49.812;6.620;2023-09-07T02:37:52;5.25;;;3.13;;
12367;SDS011;6248;49.812;6.620;2023-09-07T02:40:20;3.80;;;3.28;;
12367;SDS011;6248;49.812;6.620;2023-09-07T02:42:47;3.30;;;3.08;;
12367;SDS011;6248;49.812;6.620;2023-09-07T02:45:15;3.10;;;2.90;;
12367;SDS011;6248;49.812;6.620;2023-09-07T02:47:44;5.55;;;3.22;;
12367;SDS011;6248;49.812;6.620;2023-09-07T02:50:12;3.00;;;2.80;;
12367;SDS011;6248;49.812;6.620;2023-09-07T02:52:41;3.50;;;2.97;;
12367;SDS011;6248;49.812;6.620;2023-09-07T02:55:08;3.35;;;3.05;;
12367;SDS011;6248;49.812;6.620;2023-09-07T02:57:35;3.63;;;3.30;;
12367;SDS011;6248;49.812;6.620;2023-09-07T03:00:03;4.13;;;3.20;;
12367;SDS011;6248;49.812;6.620;2023-09-07T03:02:34;3.10;;;2.90;;
12367;SDS011;6248;49.812;6.620;2023-09-07T03:05:03;5.45;;;3.20;;
12367;SDS011;6248;49.812;6.620;2023-09-07T03:07:32;3.72;;;3.40;;
12367;SDS011;6248;49.812;6.620;2023-09-07T03:10:00;3.20;;;2.90;;
12367;SDS011;6248;49.812;6.620;2023-09-07T03:12:27;3.70;;;3.40;;
12367;SDS011;6248;49.812;6.620;2023-09-07T03:14:55;3.63;;;3.33;;
12367;SDS011;6248;49.812;6.620;2023-09-07T03:17:22;4.00;;;3.20;;
12367;SDS011;6248;49.812;6.620;2023-09-07T03:19:50;4.13;;;3.72;;
12367;SDS011;6248;49.812;6.620;2023-09-07T03:22:18;3.75;;;3.45;;
12367;SDS011;6248;49.812;6.620;2023-09-07T03:24:46;4.07;;;3.25;;
12367;SDS011;6248;49.812;6.620;2023-09-07T03:27:13;3.47;;;3.17;;
12367;SDS011;6248;49.812;6.620;2023-09-07T03:29:41;3.58;;;3.30;;
12367;SDS011;6248;49.812;6.620;2023-09-07T03:32:08;3.15;;;2.92;;
12367;SDS011;6248;49.812;6.620;2023-09-07T03:34:35;3.58;;;3.13;;
12367;SDS011;6248;49.812;6.620;2023-09-07T03:37:03;3.47;;;3.17;;
12367;SDS011;6248;49.812;6.620;2023-09-07T03:39:32;3.10;;;2.80;;
12367;SDS011;6248;49.812;6.620;2023-09-07T03:42:00;3.47;;;3.25;;
12367;SDS011;6248;49.812;6.620;2023-09-07T03:44:27;3.50;;;3.20;;
12367;SDS011;6248;49.812;6.620;2023-09-07T03:46:54;3.47;;;3.17;;
12367;SDS011;6248;49.812;6.620;2023-09-07T03:49:21;3.33;;;3.08;;
12367;SDS011;6248;49.812;6.620;2023-09-07T03:51:48;3.40;;;3.10;;
12367;SDS011;6248;49.812;6.620;2023-09-07T03:54:16;3.75;;;3.45;;
12367;SDS011;6248;49.812;6.620;2023-09-07T03:56:45;3.30;;;3.03;;
12367;SDS011;6248;49.812;6.620;2023-09-07T03:59:12;3.47;;;3.03;;
12367;SDS011;6248;49.812;6.620;2023-09-07T04:01:39;3.28;;;3.00;;
12367;SDS011;6248;49.812;6.620;2023-09-07T04:04:07;3.65;;;3.35;;
12367;SDS011;6248;49.812;6.620;2023-09-07T04:06:34;3.17;;;2.95;;
12367;SDS011;6248;49.812;6.620;2023-09-07T04:09:01;3.58;;;3.10;;
12367;SDS011;6248;49.812;6.620;2023-09-07T04:11:29;3.58;;;3.28;;
12367;SDS011;6248;49.812;6.620;2023-09-07T04:13:57;3.10;;;2.90;;
12367;SDS011;6248;49.812;6.620;2023-09-07T04:16:25;3.38;;;3.08;;
12367;SDS011;6248;49.812;6.620;2023-09-07T04:18:52;4.25;;;3.08;;
12367;SDS011;6248;49.812;6.620;2023-09-07T04:21:19;3.45;;;2.90;;
12367;SDS011;6248;49.812;6.620;2023-09-07T04:23:47;3.85;;;3.45;;
12367;SDS011;6248;49.812;6.620;2023-09-07T04:26:14;3.38;;;3.08;;
12367;SDS011;6248;49.812;6.620;2023-09-07T04:28:41;3.10;;;2.72;;
12367;SDS011;6248;49.812;6.620;2023-09-07T04:31:10;3.50;;;3.20;;
12367;SDS011;6248;49.812;6.620;2023-09-07T04:33:37;3.40;;;2.95;;
12367;SDS011;6248;49.812;6.620;2023-09-07T04:36:09;4.50;;;3.30;;
12367;SDS011;6248;49.812;6.620;2023-09-07T04:38:53;3.40;;;3.10;;
12367;SDS011;6248;49.812;6.620;2023-09-07T04:41:31;3.05;;;2.85;;
12367;SDS011;6248;49.812;6.620;2023-09-07T04:44:03;3.42;;;3.13;;
12367;SDS011;6248;49.812;6.620;2023-09-07T04:46:34;3.22;;;2.97;;
12367;SDS011;6248;49.812;6.620;2023-09-07T04:49:05;4.03;;;3.15;;
12367;SDS011;6248;49.812;6.620;2023-09-07T04:51:33;3.63;;;3.33;;
12367;SDS011;6248;49.812;6.620;2023-09-07T04:54:01;3.65;;;3.20;;
12367;SDS011;6248;49.812;6.620;2023-09-07T04:56:28;3.38;;;2.90;;
12367;SDS011;6248;49.812;6.620;2023-09-07T04:58:56;3.15;;;2.95;;
12367;SDS011;6248;49.812;6.620;2023-09-07T05:01:23;3.63;;;3.30;;
12367;SDS011;6248;49.812;6.620;2023-09-07T05:03:51;3.55;;;3.00;;
12367;SDS011;6248;49.812;6.620;2023-09-07T05:06:20;4.72;;;3.28;;
12367;SDS011;6248;49.812;6.620;2023-09-07T05:08:48;3.30;;;2.95;;
12367;SDS011;6248;49.812;6.620;2023-09-07T05:11:15;3.85;;;3.05;;
12367;SDS011;6248;49.812;6.620;2023-09-07T05:13:42;2.88;;;2.67;;
12367;SDS011;6248;49.812;6.620;2023-09-07T05:16:10;3.88;;;3.00;;
12367;SDS011;6248;49.812;6.620;2023-09-07T05:18:40;4.00;;;3.38;;
12367;SDS011;6248;49.812;6.620;2023-09-07T05:21:13;3.70;;;3.25;;
12367;SDS011;6248;49.812;6.620;2023-09-07T05:23:40;3.85;;;3.17;;
12367;SDS011;6248;49.812;6.620;2023-09-07T05:26:08;3.40;;;3.10;;
12367;SDS011;6248;49.812;6.620;2023-09-07T05:28:35;4.10;;;2.97;;
12367;SDS011;6248;49.812;6.620;2023-09-07T05:31:03;2.97;;;2.78;;
12367;SDS011;6248;49.812;6.620;2023-09-07T05:33:30;3.28;;;2.90;;
12367;SDS011;6248;49.812;6.620;2023-09-07T05:35:57;3.17;;;2.97;;
12367;SDS011;6248;49.812;6.620;2023-09-07T05:38:28;3.70;;;3.35;;
12367;SDS011;6248;49.812;6.620;2023-09-07T05:40:55;4.70;;;3.30;;
12367;SDS011;6248;49.812;6.620;2023-09-07T05:43:22;3.38;;;3.15;;
12367;SDS011;6248;49.812;6.620;2023-09-07T05:45:50;4.05;;;3.60;;
12367;SDS011;6248;49.812;6.620;2023-09-07T05:48:17;3.42;;;3.13;;
12367;SDS011;6248;49.812;6.620;2023-09-07T05:50:45;4.05;;;3.63;;
12367;SDS011;6248;49.812;6.620;2023-09-07T05:53:12;3.03;;;2.83;;
12367;SDS011;6248;49.812;6.620;2023-09-07T05:55:41;3.55;;;3.25;;
12367;SDS011;6248;49.812;6.620;2023-09-07T05:58:08;3.15;;;2.92;;
12367;SDS011;6248;49.812;6.620;2023-09-07T06:00:35;3.45;;;3.10;;
12367;SDS011;6248;49.812;6.620;2023-09-07T06:03:04;3.30;;;3.00;;
12367;SDS011;6248;49.812;6.620;2023-09-07T06:05:32;3.58;;;3.28;;
12367;SDS011;6248;49.812;6.620;2023-09-07T06:08:00;4.15;;;3.75;;
12367;SDS011;6248;49.812;6.620;2023-09-07T06:10:28;3.83;;;3.42;;
12367;SDS011;6248;49.812;6.620;2023-09-07T06:12:57;5.60;;;3.65;;
12367;SDS011;6248;49.812;6.620;2023-09-07T06:15:24;3.70;;;3.40;;
12367;SDS011;6248;49.812;6.620;2023-09-07T06:17:52;4.00;;;3.45;;
12367;SDS011;6248;49.812;6.620;2023-09-07T06:20:19;3.72;;;3.42;;
12367;SDS011;6248;49.812;6.620;2023-09-07T06:22:46;5.43;;;3.65;;
12367;SDS011;6248;49.812;6.620;2023-09-07T06:25:14;3.90;;;3.55;;
12367;SDS011;6248;49.812;6.620;2023-09-07T06:27:41;3.90;;;3.60;;
12367;SDS011;6248;49.812;6.620;2023-09-07T06:30:10;4.70;;;3.60;;
12367;SDS011;6248;49.812;6.620;2023-09-07T06:32:37;3.97;;;3.40;;
12367;SDS011;6248;49.812;6.620;2023-09-07T06:35:05;3.92;;;3.63;;
12367;SDS011;6248;49.812;6.620;2023-09-07T06:37:33;3.72;;;3.33;;
12367;SDS011;6248;49.812;6.620;2023-09-07T06:40:01;3.63;;;3.33;;
12367;SDS011;6248;49.812;6.620;2023-09-07T06:42:28;9.02;;;3.60;;
12367;SDS011;6248;49.812;6.620;2023-09-07T06:44:56;5.22;;;3.35;;
12367;SDS011;6248;49.812;6.620;2023-09-07T06:47:25;4.28;;;3.45;;
12367;SDS011;6248;49.812;6.620;2023-09-07T06:49:52;4.05;;;3.38;;
12367;SDS011;6248;49.812;6.620;2023-09-07T06:52:19;3.70;;;3.40;;
12367;SDS011;6248;49.812;6.620;2023-09-07T06:54:47;4.35;;;3.42;;
12367;SDS011;6248;49.812;6.620;2023-09-07T06:57:14;3.20;;;2.90;;
12367;SDS011;6248;49.812;6.620;2023-09-07T06:59:41;3.70;;;3.38;;
12367;SDS011;6248;49.812;6.620;2023-09-07T07:02:08;4.00;;;3.53;;
12367;SDS011;6248;49.812;6.620;2023-09-07T07:04:37;3.65;;;3.38;;
12367;SDS011;6248;49.812;6.620;2023-09-07T07:07:04;3.33;;;3.03;;
12367;SDS011;6248;49.812;6.620;2023-09-07T07:09:33;11.45;;;3.55;;
12367;SDS011;6248;49.812;6.620;2023-09-07T07:12:01;5.28;;;3.38;;
12367;SDS011;6248;49.812;6.620;2023-09-07T07:14:28;3.72;;;3.42;;
12367;SDS011;6248;49.812;6.620;2023-09-07T07:16:56;3.35;;;3.08;;
12367;SDS011;6248;49.812;6.620;2023-09-07T07:19:23;4.53;;;3.28;;
12367;SDS011;6248;49.812;6.620;2023-09-07T07:21:52;4.32;;;3.30;;
12367;SDS011;6248;49.812;6.620;2023-09-07T07:24:19;3.92;;;3.63;;
12367;SDS011;6248;49.812;6.620;2023-09-07T07:26:47;3.72;;;3.42;;
12367;SDS011;6248;49.812;6.620;2023-09-07T07:29:16;3.55;;;3.17;;
12367;SDS011;6248;49.812;6.620;2023-09-07T07:31:43;3.60;;;3.30;;
12367;SDS011;6248;49.812;6.620;2023-09-07T07:34:12;4.32;;;3.60;;
12367;SDS011;6248;49.812;6.620;2023-09-07T07:36:39;4.15;;;3.40;;
12367;SDS011;6248;49.812;6.620;2023-09-07T07:39:07;3.38;;;3.08;;
12367;SDS011;6248;49.812;6.620;2023-09-07T07:41:35;4.25;;;2.80;;
12367;SDS011;6248;49.812;6.620;2023-09-07T07:44:03;3.20;;;2.90;;
12367;SDS011;6248;49.812;6.620;2023-09-07T07:46:31;3.92;;;3.30;;
12367;SDS011;6248;49.812;6.620;2023-09-07T07:48:58;4.22;;;2.90;;
12367;SDS011;6248;49.812;6.620;2023-09-07T07:51:27;3.10;;;2.88;;
12367;SDS011;6248;49.812;6.620;2023-09-07T07:53:54;3.08;;;2.88;;
12367;SDS011;6248;49.812;6.620;2023-09-07T07:56:23;4.25;;;2.85;;
12367;SDS011;6248;49.812;6.620;2023-09-07T07:58:50;3.50;;;2.72;;
12367;SDS011;6248;49.812;6.620;2023-09-07T08:01:18;4.30;;;3.10;;
12367;SDS011;6248;49.812;6.620;2023-09-07T08:03:46;3.05;;;2.75;;
12367;SDS011;6248;49.812;6.620;2023-09-07T08:06:13;4.72;;;2.88;;
12367;SDS011;6248;49.812;6.620;2023-09-07T08:08:41;2.80;;;2.60;;
12367;SDS011;6248;49.812;6.620;2023-09-07T08:11:08;5.50;;;2.90;;
12367;SDS011;6248;49.812;6.620;2023-09-07T08:13:37;4.30;;;2.90;;
12367;SDS011;6248;49.812;6.620;2023-09-07T08:16:04;3.17;;;2.85;;
12367;SDS011;6248;49.812;6.620;2023-09-07T08:18:32;3.03;;;2.83;;
12367;SDS011;6248;49.812;6.620;2023-09-07T08:21:00;3.67;;;3.00;;
12367;SDS011;6248;49.812;6.620;2023-09-07T08:23:28;3.28;;;2.97;;
12367;SDS011;6248;49.812;6.620;2023-09-07T08:25:55;3.45;;;3.10;;
12367;SDS011;6248;49.812;6.620;2023-09-07T08:28:23;4.78;;;2.92;;
12367;SDS011;6248;49.812;6.620;2023-09-07T08:30:52;3.50;;;2.85;;
12367;SDS011;6248;49.812;6.620;2023-09-07T08:33:20;3.70;;;2.53;;
12367;SDS011;6248;49.812;6.620;2023-09-07T08:35:54;3.00;;;2.80;;
12367;SDS011;6248;49.812;6.620;2023-09-07T08:38:21;3.00;;;2.70;;
12367;SDS011;6248;49.812;6.620;2023-09-07T08:41:00;2.90;;;2.70;;
12367;SDS011;6248;49.812;6.620;2023-09-07T08:43:32;2.97;;;2.67;;
12367;SDS011;6248;49.812;6.620;2023-09-07T08:46:07;5.47;;;2.75;;
12367;SDS011;6248;49.812;6.620;2023-09-07T08:48:37;3.58;;;2.67;;
12367;SDS011;6248;49.812;6.620;2023-09-07T08:51:06;3.03;;;2.50;;
12367;SDS011;6248;49.812;6.620;2023-09-07T08:53:35;4.47;;;2.85;;
12367;SDS011;6248;49.812;6.620;2023-09-07T08:56:06;3.83;;;2.70;;
12367;SDS011;6248;49.812;6.620;2023-09-07T08:58:35;5.03;;;2.92;;
12367;SDS011;6248;49.812;6.620;2023-09-07T09:01:06;3.15;;;2.92;;
12367;SDS011;6248;49.812;6.620;2023-09-07T09:03:35;3.67;;;2.80;;
12367;SDS011;6248;49.812;6.620;2023-09-07T09:06:03;3.00;;;2.80;;
12367;SDS011;6248;49.812;6.620;2023-09-07T09:08:40;3.33;;;2.80;;
12367;SDS011;6248;49.812;6.620;2023-09-07T09:11:11;6.07;;;2.80;;
12367;SDS011;6248;49.812;6.620;2023-09-07T09:13:40;3.00;;;2.80;;
12367;SDS011;6248;49.812;6.620;2023-09-07T09:16:12;3.47;;;2.70;;
12367;SDS011;6248;49.812;6.620;2023-09-07T09:18:47;3.13;;;2.83;;
12367;SDS011;6248;49.812;6.620;2023-09-07T09:21:15;4.97;;;2.63;;
12367;SDS011;6248;49.812;6.620;2023-09-07T09:23:43;3.97;;;2.78;;
12367;SDS011;6248;49.812;6.620;2023-09-07T09:26:12;2.97;;;2.67;;
12367;SDS011;6248;49.812;6.620;2023-09-07T09:28:41;2.95;;;2.65;;
12367;SDS011;6248;49.812;6.620;2023-09-07T09:31:14;2.88;;;2.67;;
12367;SDS011;6248;49.812;6.620;2023-09-07T09:33:47;3.60;;;2.70;;
12367;SDS011;6248;49.812;6.620;2023-09-07T09:42:59;2.97;;;2.70;;
12367;SDS011;6248;49.812;6.620;2023-09-07T10:20:03;4.72;;;2.22;;
12367;SDS011;6248;49.812;6.620;2023-09-07T10:22:31;3.80;;;2.70;;
12367;SDS011;6248;49.812;6.620;2023-09-07T10:24:59;2.60;;;2.33;;
12367;SDS011;6248;49.812;6.620;2023-09-07T10:27:26;3.72;;;2.58;;
12367;SDS011;6248;49.812;6.620;2023-09-07T10:30:08;2.90;;;2.50;;
12367;SDS011;6248;49.812;6.620;2023-09-07T10:32:49;2.60;;;2.40;;
12367;SDS011;6248;49.812;6.620;2023-09-07T10:38:20;3.15;;;2.58;;
12367;SDS011;6248;49.812;6.620;2023-09-07T10:40:54;2.60;;;2.40;;
12367;SDS011;6248;49.812;6.620;2023-09-07T10:43:23;4.00;;;2.70;;
12367;SDS011;6248;49.812;6.620;2023-09-07T10:45:50;3.38;;;2.60;;
12367;SDS011;6248;49.812;6.620;2023-09-07T10:48:18;2.65;;;2.45;;
12367;SDS011;6248;49.812;6.620;2023-09-07T10:50:46;2.55;;;2.35;;
12367;SDS011;6248;49.812;6.620;2023-09-07T10:53:13;3.05;;;2.40;;
12367;SDS011;6248;49.812;6.620;2023-09-07T10:55:42;3.05;;;2.50;;
12367;SDS011;6248;49.812;6.620;2023-09-07T10:58:10;2.60;;;2.40;;
12367;SDS011;6248;49.812;6.620;2023-09-07T11:00:37;2.75;;;2.33;;
12367;SDS011;6248;49.812;6.620;2023-09-07T11:03:08;3.55;;;2.60;;
12367;SDS011;6248;49.812;6.620;2023-09-07T11:05:36;3.10;;;2.42;;
12367;SDS011;6248;49.812;6.620;2023-09-07T11:08:05;2.63;;;2.42;;
12367;SDS011;6248;49.812;6.620;2023-09-07T11:10:33;2.85;;;2.60;;
12367;SDS011;6248;49.812;6.620;2023-09-07T11:13:05;2.95;;;2.45;;
12367;SDS011;6248;49.812;6.620;2023-09-07T11:15:33;3.25;;;2.33;;
12367;SDS011;6248;49.812;6.620;2023-09-07T11:18:04;2.58;;;2.38;;
12367;SDS011;6248;49.812;6.620;2023-09-07T11:20:32;2.42;;;2.22;;
12367;SDS011;6248;49.812;6.620;2023-09-07T11:22:59;2.78;;;2.53;;
12367;SDS011;6248;49.812;6.620;2023-09-07T11:25:27;3.70;;;2.60;;
12367;SDS011;6248;49.812;6.620;2023-09-07T11:27:54;2.85;;;2.63;;
12367;SDS011;6248;49.812;6.620;2023-09-07T11:30:24;2.92;;;2.45;;
12367;SDS011;6248;49.812;6.620;2023-09-07T11:32:59;2.53;;;2.33;;
12367;SDS011;6248;49.812;6.620;2023-09-07T11:35:26;2.80;;;2.65;;
12367;SDS011;6248;49.812;6.620;2023-09-07T11:37:54;2.55;;;2.30;;
12367;SDS011;6248;49.812;6.620;2023-09-07T11:40:21;2.85;;;2.47;;
12367;SDS011;6248;49.812;6.620;2023-09-07T11:42:48;2.60;;;2.40;;
12367;SDS011;6248;49.812;6.620;2023-09-07T11:45:16;2.55;;;2.35;;
12367;SDS011;6248;49.812;6.620;2023-09-07T11:47:46;2.80;;;2.58;;
12367;SDS011;6248;49.812;6.620;2023-09-07T11:50:13;2.50;;;2.30;;
12367;SDS011;6248;49.812;6.620;2023-09-07T11:52:40;3.22;;;2.67;;
12367;SDS011;6248;49.812;6.620;2023-09-07T11:55:08;3.05;;;2.33;;
12367;SDS011;6248;49.812;6.620;2023-09-07T11:57:36;2.60;;;2.40;;
12367;SDS011;6248;49.812;6.620;2023-09-07T12:00:04;2.60;;;2.40;;
12367;SDS011;6248;49.812;6.620;2023-09-07T12:02:35;2.88;;;2.10;;
12367;SDS011;6248;49.812;6.620;2023-09-07T12:05:04;2.50;;;2.30;;
12367;SDS011;6248;49.812;6.620;2023-09-07T12:07:33;2.55;;;2.35;;
12367;SDS011;6248;49.812;6.620;2023-09-07T12:10:00;3.10;;;2.20;;
12367;SDS011;6248;49.812;6.620;2023-09-07T12:12:27;2.42;;;2.22;;
12367;SDS011;6248;49.812;6.620;2023-09-07T12:14:55;2.50;;;2.30;;
12367;SDS011;6248;49.812;6.620;2023-09-07T12:17:22;2.50;;;2.20;;
12367;SDS011;6248;49.812;6.620;2023-09-07T12:19:50;2.30;;;2.20;;
12367;SDS011;6248;49.812;6.620;2023-09-07T12:22:19;3.45;;;2.50;;
12367;SDS011;6248;49.812;6.620;2023-09-07T12:24:46;2.90;;;2.65;;
12367;SDS011;6248;49.812;6.620;2023-09-07T12:27:13;2.20;;;2.10;;
12367;SDS011;6248;49.812;6.620;2023-09-07T12:29:41;3.88;;;2.58;;
12367;SDS011;6248;49.812;6.620;2023-09-07T12:32:08;3.72;;;2.63;;
12367;SDS011;6248;49.812;6.620;2023-09-07T12:34:35;2.70;;;2.03;;
12367;SDS011;6248;49.812;6.620;2023-09-07T12:37:03;3.58;;;2.33;;
12367;SDS011;6248;49.812;6.620;2023-09-07T12:39:31;2.50;;;2.30;;
12367;SDS011;6248;49.812;6.620;2023-09-07T12:41:59;2.22;;;2.13;;
12367;SDS011;6248;49.812;6.620;2023-09-07T12:44:26;2.40;;;2.10;;
12367;SDS011;6248;49.812;6.620;2023-09-07T12:46:54;2.13;;;2.03;;
12367;SDS011;6248;49.812;6.620;2023-09-07T12:49:21;2.70;;;2.50;;
12367;SDS011;6248;49.812;6.620;2023-09-07T12:51:48;2.33;;;2.22;;
12367;SDS011;6248;49.812;6.620;2023-09-07T12:54:16;5.72;;;2.53;;
12367;SDS011;6248;49.812;6.620;2023-09-07T12:56:45;2.10;;;2.00;;
12367;SDS011;6248;49.812;6.620;2023-09-07T12:59:12;2.22;;;2.13;;
12367;SDS011;6248;49.812;6.620;2023-09-07T13:01:40;4.60;;;2.20;;
12367;SDS011;6248;49.812;6.620;2023-09-07T13:04:18;2.53;;;2.40;;
12367;SDS011;6248;49.812;6.620;2023-09-07T13:06:50;2.75;;;2.55;;
12367;SDS011;6248;49.812;6.620;2023-09-07T13:15:24;2.70;;;2.50;;
12367;SDS011;6248;49.812;6.620;2023-09-07T13:18:04;2.65;;;2.35;;
12367;SDS011;6248;49.812;6.620;2023-09-07T13:20:32;2.50;;;2.30;;
12367;SDS011;6248;49.812;6.620;2023-09-07T13:22:59;2.60;;;2.40;;
12367;SDS011;6248;49.812;6.620;2023-09-07T13:25:27;2.50;;;2.30;;
12367;SDS011;6248;49.812;6.620;2023-09-07T13:27:56;3.08;;;2.30;;
12367;SDS011;6248;49.812;6.620;2023-09-07T13:30:28;2.35;;;2.25;;
12367;SDS011;6248;49.812;6.620;2023-09-07T13:33:02;3.45;;;2.70;;
12367;SDS011;6248;49.812;6.620;2023-09-07T13:35:29;4.88;;;2.40;;
12367;SDS011;6248;49.812;6.620;2023-09-07T13:37:57;2.40;;;2.20;;
12367;SDS011;6248;49.812;6.620;2023-09-07T13:40:28;3.22;;;2.28;;
12367;SDS011;6248;49.812;6.620;2023-09-07T13:43:00;2.85;;;2.38;;
12367;SDS011;6248;49.812;6.620;2023-09-07T13:45:31;2.30;;;2.10;;
12367;SDS011;6248;49.812;6.620;2023-09-07T13:47:59;2.22;;;2.03;;
12367;SDS011;6248;49.812;6.620;2023-09-07T13:50:27;2.25;;;2.15;;
12367;SDS011;6248;49.812;6.620;2023-09-07T13:52:55;2.40;;;2.20;;
12367;SDS011;6248;49.812;6.620;2023-09-07T13:55:22;3.40;;;2.63;;
12367;SDS011;6248;49.812;6.620;2023-09-07T13:57:50;3.70;;;2.67;;
12367;SDS011;6248;49.812;6.620;2023-09-07T14:00:18;4.25;;;2.58;;
12367;SDS011;6248;49.812;6.620;2023-09-07T14:02:50;2.40;;;2.20;;
12367;SDS011;6248;49.812;6.620;2023-09-07T14:05:17;3.35;;;2.10;;
12367;SDS011;6248;49.812;6.620;2023-09-07T14:07:45;2.55;;;2.30;;
12367;SDS011;6248;49.812;6.620;2023-09-07T14:10:12;2.95;;;2.47;;
12367;SDS011;6248;49.812;6.620;2023-09-07T14:12:40;4.00;;;2.47;;
12367;SDS011;6248;49.812;6.620;2023-09-07T14:15:09;2.75;;;2.40;;
12367;SDS011;6248;49.812;6.620;2023-09-07T14:17:37;2.65;;;2.45;;
12367;SDS011;6248;49.812;6.620;2023-09-07T14:20:06;4.40;;;2.47;;
12367;SDS011;6248;49.812;6.620;2023-09-07T14:22:39;3.47;;;2.35;;
12367;SDS011;6248;49.812;6.620;2023-09-07T14:25:08;2.60;;;2.40;;
12367;SDS011;6248;49.812;6.620;2023-09-07T14:27:37;4.25;;;2.30;;
12367;SDS011;6248;49.812;6.620;2023-09-07T14:30:05;2.33;;;2.20;;
12367;SDS011;6248;49.812;6.620;2023-09-07T14:32:33;3.00;;;2.67;;
12367;SDS011;6248;49.812;6.620;2023-09-07T14:35:01;2.92;;;2.65;;
12367;SDS011;6248;49.812;6.620;2023-09-07T14:37:31;2.90;;;2.70;;
12367;SDS011;6248;49.812;6.620;2023-09-07T14:39:58;5.03;;;2.70;;
12367;SDS011;6248;49.812;6.620;2023-09-07T14:42:32;2.75;;;2.55;;
12367;SDS011;6248;49.812;6.620;2023-09-07T14:45:00;4.28;;;2.70;;
12367;SDS011;6248;49.812;6.620;2023-09-07T14:47:28;2.90;;;2.67;;
12367;SDS011;6248;49.812;6.620;2023-09-07T14:49:56;4.75;;;2.60;;
12367;SDS011;6248;49.812;6.620;2023-09-07T14:52:23;3.30;;;3.00;;
12367;SDS011;6248;49.812;6.620;2023-09-07T14:54:52;3.85;;;3.20;;
12367;SDS011;6248;49.812;6.620;2023-09-07T14:57:21;3.05;;;2.75;;
12367;SDS011;6248;49.812;6.620;2023-09-07T14:59:51;3.42;;;2.70;;
12367;SDS011;6248;49.812;6.620;2023-09-07T15:02:20;3.05;;;2.40;;
12367;SDS011;6248;49.812;6.620;2023-09-07T15:04:48;3.03;;;2.83;;
12367;SDS011;6248;49.812;6.620;2023-09-07T15:07:15;3.30;;;2.60;;
12367;SDS011;6248;49.812;6.620;2023-09-07T15:09:45;3.67;;;2.72;;
12367;SDS011;6248;49.812;6.620;2023-09-07T15:12:17;2.97;;;2.70;;
12367;SDS011;6248;49.812;6.620;2023-09-07T15:14:45;4.95;;;2.72;;
12367;SDS011;6248;49.812;6.620;2023-09-07T15:17:14;3.25;;;2.47;;
12367;SDS011;6248;49.812;6.620;2023-09-07T15:19:45;2.97;;;2.78;;
12367;SDS011;6248;49.812;6.620;2023-09-07T15:22:15;3.20;;;2.90;;
12367;SDS011;6248;49.812;6.620;2023-09-07T15:24:42;2.90;;;2.70;;
12367;SDS011;6248;49.812;6.620;2023-09-07T15:27:10;3.58;;;2.60;;
12367;SDS011;6248;49.812;6.620;2023-09-07T15:29:39;5.70;;;2.90;;
12367;SDS011;6248;49.812;6.620;2023-09-07T15:32:06;6.88;;;2.90;;
12367;SDS011;6248;49.812;6.620;2023-09-07T15:34:55;4.68;;;2.53;;
12367;SDS011;6248;49.812;6.620;2023-09-07T15:37:23;3.80;;;2.55;;
12367;SDS011;6248;49.812;6.620;2023-09-07T15:39:50;2.95;;;2.60;;
12367;SDS011;6248;49.812;6.620;2023-09-07T15:42:17;2.88;;;2.67;;
12367;SDS011;6248;49.812;6.620;2023-09-07T15:44:46;2.90;;;2.70;;
12367;SDS011;6248;49.812;6.620;2023-09-07T15:47:14;5.05;;;2.92;;
12367;SDS011;6248;49.812;6.620;2023-09-07T15:49:42;4.35;;;2.88;;
12367;SDS011;6248;49.812;6.620;2023-09-07T15:52:11;4.35;;;2.80;;
12367;SDS011;6248;49.812;6.620;2023-09-07T15:54:38;2.63;;;2.42;;
12367;SDS011;6248;49.812;6.620;2023-09-07T15:57:06;2.60;;;2.50;;